createdAt,value
2023-08-09T00:02:09.485Z,99.90
2023-08-09T00:04:36.454Z,99.90
2023-08-09T00:07:03.673Z,99.90
2023-08-09T00:09:31.358Z,99.90
2023-08-09T00:11:59.757Z,99.90
2023-08-09T00:14:26.859Z,99.90
2023-08-09T00:16:54.254Z,99.90
2023-08-09T00:19:21.467Z,99.90
2023-08-09T00:21:48.392Z,99.90
2023-08-09T00:24:15.315Z,99.90
2023-08-09T00:26:42.232Z,99.90
2023-08-09T00:29:10.629Z,99.90
2023-08-09T00:31:37.692Z,99.90
2023-08-09T00:34:07.288Z,99.90
2023-08-09T00:36:36.015Z,99.90
2023-08-09T00:39:06.732Z,99.90
2023-08-09T00:41:33.999Z,99.90
2023-08-09T00:44:02.616Z,99.90
2023-08-09T00:46:30.918Z,99.90
2023-08-09T00:48:57.884Z,99.90
2023-08-09T00:51:24.878Z,99.90
2023-08-09T00:53:51.977Z,99.90
2023-08-09T00:56:19.002Z,99.90
2023-08-09T00:58:45.930Z,99.90
2023-08-09T01:01:12.981Z,99.90
2023-08-09T01:03:41.401Z,99.90
2023-08-09T01:06:16.165Z,99.90
2023-08-09T01:08:48.832Z,99.90
2023-08-09T01:11:21.735Z,99.90
2023-08-09T01:13:51.682Z,99.90
2023-08-09T01:16:21.537Z,99.90
2023-08-09T01:18:51.392Z,99.90
2023-08-09T01:21:20.798Z,99.90
2023-08-09T01:23:50.041Z,99.90
2023-08-09T01:26:17.095Z,99.90
2023-08-09T01:28:44.004Z,99.90
2023-08-09T01:31:12.006Z,99.90
2023-08-09T01:33:39.279Z,99.90
2023-08-09T01:36:11.221Z,99.90
2023-08-09T01:38:45.182Z,99.90
2023-08-09T01:41:14.636Z,99.90
2023-08-09T01:43:42.683Z,99.90
2023-08-09T01:46:10.129Z,99.90
2023-08-09T01:48:37.018Z,99.90
2023-08-09T01:51:03.966Z,99.90
2023-08-09T01:53:31.163Z,99.90
2023-08-09T01:55:58.106Z,99.90
2023-08-09T01:58:27.114Z,99.90
2023-08-09T02:00:54.108Z,99.90
2023-08-09T02:03:21.564Z,99.90
2023-08-09T02:05:49.038Z,99.90
2023-08-09T02:08:15.937Z,99.90
2023-08-09T02:10:46.208Z,99.90
2023-08-09T02:13:14.580Z,99.90
2023-08-09T02:15:42.863Z,99.90
2023-08-09T02:18:15.891Z,99.90
2023-08-09T02:20:43.037Z,99.90
2023-08-09T02:23:10.200Z,99.90
2023-08-09T02:25:37.164Z,99.90
2023-08-09T02:28:05.282Z,99.90
2023-08-09T02:30:32.560Z,99.90
2023-08-09T02:33:01.065Z,99.90
2023-08-09T02:35:33.571Z,99.90
2023-08-09T02:38:00.565Z,99.90
2023-08-09T02:40:27.460Z,99.90
2023-08-09T02:42:54.426Z,99.90
2023-08-09T02:45:21.435Z,99.90
2023-08-09T02:47:49.404Z,99.90
2023-08-09T02:50:17.696Z,99.90
2023-08-09T02:52:44.634Z,99.90
2023-08-09T02:55:14.215Z,99.90
2023-08-09T02:57:41.234Z,99.90
2023-08-09T03:00:09.578Z,99.90
2023-08-09T03:02:37.536Z,99.90
2023-08-09T03:05:05.334Z,99.90
2023-08-09T03:07:34.023Z,99.90
2023-08-09T03:10:02.302Z,99.90
2023-08-09T03:12:29.299Z,99.90
2023-08-09T03:14:56.350Z,99.90
2023-08-09T03:17:23.385Z,99.90
2023-08-09T03:19:50.938Z,99.90
2023-08-09T03:22:18.294Z,99.90
2023-08-09T03:24:46.867Z,99.90
2023-08-09T03:27:14.557Z,99.90
2023-08-09T03:29:42.178Z,99.90
2023-08-09T03:32:09.218Z,99.90
2023-08-09T03:34:36.501Z,99.90
2023-08-09T03:37:05.131Z,99.90
2023-08-09T03:39:32.926Z,99.90
2023-08-09T03:42:01.442Z,99.90
2023-08-09T03:44:28.488Z,99.90
2023-08-09T03:46:56.925Z,99.90
2023-08-09T03:49:24.404Z,99.90
2023-08-09T03:51:51.440Z,99.90
2023-08-09T03:54:18.452Z,99.90
2023-08-09T03:56:45.477Z,99.90
2023-08-09T03:59:13.789Z,99.90
2023-08-09T04:01:40.722Z,99.90
2023-08-09T04:04:09.141Z,99.90
2023-08-09T04:06:36.384Z,99.90
2023-08-09T04:09:03.622Z,99.90
2023-08-09T04:11:30.864Z,99.90
2023-08-09T04:13:58.139Z,99.90
2023-08-09T04:16:26.871Z,99.90
2023-08-09T04:18:53.879Z,99.90
2023-08-09T04:21:21.879Z,99.90
2023-08-09T04:23:49.321Z,99.90
2023-08-09T04:26:16.607Z,99.90
2023-08-09T04:28:43.532Z,99.90
2023-08-09T04:31:10.550Z,99.90
2023-08-09T04:33:39.003Z,99.90
2023-08-09T04:36:06.029Z,99.90
2023-08-09T04:38:32.933Z,99.90
2023-08-09T04:40:59.922Z,99.90
2023-08-09T04:43:26.888Z,99.90
2023-08-09T04:45:54.792Z,99.90
2023-08-09T04:48:21.754Z,99.90
2023-08-09T04:50:49.918Z,99.90
2023-08-09T04:53:16.792Z,99.90
2023-08-09T04:55:43.713Z,99.90
2023-08-09T04:58:10.685Z,99.90
2023-08-09T05:00:37.898Z,99.90
2023-08-09T05:03:06.142Z,99.90
2023-08-09T05:05:33.073Z,99.90
2023-08-09T05:08:01.355Z,99.90
2023-08-09T05:10:28.301Z,99.90
2023-08-09T05:12:55.229Z,99.90
2023-08-09T05:15:22.246Z,99.90
2023-08-09T05:17:49.280Z,99.90
2023-08-09T05:20:17.230Z,99.90
2023-08-09T05:22:46.117Z,99.90
2023-08-09T05:25:14.493Z,99.90
2023-08-09T05:27:41.463Z,99.90
2023-08-09T05:30:09.654Z,99.90
2023-08-09T05:32:36.625Z,99.90
2023-08-09T05:35:03.782Z,99.90
2023-08-09T05:37:31.417Z,99.90
2023-08-09T05:39:58.723Z,99.90
2023-08-09T05:42:27.033Z,99.90
2023-08-09T05:44:54.900Z,99.90
2023-08-09T05:47:21.892Z,99.90
2023-08-09T05:49:49.113Z,99.90
2023-08-09T05:52:16.080Z,99.90
2023-08-09T05:54:43.476Z,99.90
2023-08-09T05:57:10.578Z,99.90
2023-08-09T05:59:38.827Z,99.90
2023-08-09T06:02:07.637Z,99.90
2023-08-09T06:04:35.132Z,99.90
2023-08-09T06:07:02.636Z,99.90
2023-08-09T06:09:29.941Z,99.90
2023-08-09T06:11:56.879Z,99.90
2023-08-09T06:14:24.790Z,99.90
2023-08-09T06:16:53.233Z,99.90
2023-08-09T06:19:20.417Z,99.90
2023-08-09T06:21:47.405Z,99.90
2023-08-09T06:24:14.833Z,99.90
2023-08-09T06:26:42.207Z,99.90
2023-08-09T06:29:10.272Z,99.90
2023-08-09T06:31:37.237Z,99.90
2023-08-09T06:34:05.831Z,99.90
2023-08-09T06:36:32.765Z,99.90
2023-08-09T06:38:59.665Z,99.90
2023-08-09T06:41:26.673Z,99.90
2023-08-09T06:43:53.598Z,99.90
2023-08-09T06:46:21.552Z,99.90
2023-08-09T06:48:48.497Z,99.90
2023-08-09T06:51:16.973Z,99.90
2023-08-09T06:53:43.856Z,99.90
2023-08-09T06:56:10.735Z,99.90
2023-08-09T06:58:37.655Z,99.90
2023-08-09T07:01:04.732Z,99.90
2023-08-09T07:03:31.797Z,99.90
2023-08-09T07:05:58.858Z,99.90
2023-08-09T07:08:27.431Z,99.90
2023-08-09T07:10:54.441Z,99.90
2023-08-09T07:13:21.364Z,99.90
2023-08-09T07:15:48.422Z,99.90
2023-08-09T07:18:15.343Z,99.90
2023-08-09T07:20:42.253Z,99.90
2023-08-09T07:23:09.163Z,99.90
2023-08-09T07:25:37.508Z,99.90
2023-08-09T07:28:05.154Z,99.90
2023-08-09T07:30:32.123Z,99.90
2023-08-09T07:32:59.074Z,99.90
2023-08-09T07:35:26.070Z,99.90
2023-08-09T07:37:53.065Z,99.90
2023-08-09T07:40:20.051Z,99.90
2023-08-09T07:42:48.271Z,99.90
2023-08-09T07:45:15.176Z,99.90
2023-08-09T07:47:42.692Z,99.90
2023-08-09T07:50:10.425Z,99.90
2023-08-09T07:52:37.826Z,99.90
2023-08-09T07:55:09.767Z,99.90
2023-08-09T07:57:36.725Z,99.90
2023-08-09T08:00:08.985Z,99.90
2023-08-09T08:02:45.013Z,99.90
2023-08-09T08:05:14.857Z,99.90
2023-08-09T08:07:42.396Z,99.90
2023-08-09T08:10:10.441Z,99.90
2023-08-09T08:12:37.432Z,99.90
2023-08-09T08:15:07.938Z,99.90
2023-08-09T08:17:35.121Z,99.90
2023-08-09T08:20:04.645Z,99.90
2023-08-09T08:22:31.591Z,99.90
2023-08-09T08:24:58.607Z,99.90
2023-08-09T08:27:26.820Z,99.90
2023-08-09T08:29:55.104Z,99.90
2023-08-09T08:32:23.374Z,99.90
2023-08-09T08:34:50.332Z,99.90
2023-08-09T08:37:17.829Z,99.90
2023-08-09T08:39:45.921Z,99.90
2023-08-09T08:42:12.877Z,99.90
2023-08-09T08:44:41.098Z,99.90
2023-08-09T08:47:08.149Z,99.90
2023-08-09T08:49:40.322Z,99.90
2023-08-09T08:52:09.052Z,99.90
2023-08-09T08:54:37.097Z,99.90
2023-08-09T08:57:04.322Z,99.90
2023-08-09T08:59:31.853Z,99.90
2023-08-09T09:01:59.060Z,99.90
2023-08-09T09:04:26.056Z,99.90
2023-08-09T09:06:55.493Z,99.90
2023-08-09T09:09:22.419Z,99.90
2023-08-09T09:11:52.780Z,99.90
2023-08-09T09:14:20.147Z,99.90
2023-08-09T09:16:49.840Z,99.90
2023-08-09T09:19:16.889Z,99.90
2023-08-09T09:21:43.820Z,99.90
2023-08-09T09:24:12.309Z,99.90
2023-08-09T09:26:39.744Z,99.90
2023-08-09T09:29:09.370Z,99.90
2023-08-09T09:31:40.726Z,99.90
2023-08-09T09:34:10.685Z,99.90
2023-08-09T09:36:39.333Z,99.90
2023-08-09T09:39:11.152Z,99.90
2023-08-09T09:41:47.391Z,99.90
2023-08-09T09:44:18.929Z,99.90
2023-08-09T09:46:45.924Z,99.90
2023-08-09T09:49:15.144Z,99.90
2023-08-09T09:51:43.987Z,99.90
2023-08-09T09:54:12.708Z,99.90
2023-08-09T09:56:42.172Z,99.90
2023-08-09T09:59:09.162Z,99.90
2023-08-09T10:01:43.042Z,99.90
2023-08-09T10:04:12.223Z,99.90
2023-08-09T10:06:43.531Z,99.90
2023-08-09T10:09:14.093Z,99.90
2023-08-09T10:11:45.624Z,99.90
2023-08-09T10:14:15.058Z,99.90
2023-08-09T10:16:44.165Z,99.90
2023-08-09T10:19:16.194Z,99.90
2023-08-09T10:21:43.513Z,99.90
2023-08-09T10:24:13.511Z,99.90
2023-08-09T10:26:45.397Z,99.90
2023-08-09T10:29:16.039Z,99.90
2023-08-09T10:31:49.524Z,99.90
2023-08-09T10:34:17.737Z,99.90
2023-08-09T10:36:50.283Z,99.90
2023-08-09T10:39:21.701Z,99.90
2023-08-09T10:42:05.793Z,99.90
2023-08-09T10:44:35.382Z,99.90
2023-08-09T10:47:03.757Z,99.90
2023-08-09T10:49:44.384Z,99.90
2023-08-09T10:52:17.584Z,99.90
2023-08-09T10:54:47.372Z,99.90
2023-08-09T10:57:17.383Z,99.90
2023-08-09T10:59:55.866Z,99.90
2023-08-09T11:02:22.809Z,99.90
2023-08-09T11:04:51.103Z,99.90
2023-08-09T11:07:20.277Z,99.90
2023-08-09T11:09:47.429Z,99.90
2023-08-09T11:12:18.151Z,99.90
2023-08-09T11:14:46.803Z,99.90
2023-08-09T11:17:14.452Z,99.90
2023-08-09T11:19:41.373Z,99.90
2023-08-09T11:22:08.757Z,99.90
2023-08-09T11:24:35.756Z,99.90
2023-08-09T11:27:02.658Z,99.90
2023-08-09T11:29:30.970Z,99.90
2023-08-09T11:31:59.669Z,99.90
2023-08-09T11:34:27.510Z,99.90
2023-08-09T11:36:56.757Z,99.90
2023-08-09T11:39:25.374Z,99.90
2023-08-09T11:41:56.023Z,99.90
2023-08-09T11:44:27.283Z,99.90
2023-08-09T11:46:57.116Z,99.90
2023-08-09T11:49:26.125Z,99.90
2023-08-09T11:51:53.402Z,99.90
2023-08-09T11:54:20.621Z,99.90
2023-08-09T11:56:47.682Z,99.90
2023-08-09T11:59:18.895Z,99.90
2023-08-09T12:01:46.924Z,99.90
2023-08-09T12:04:20.801Z,99.90
2023-08-09T12:06:51.230Z,99.90
2023-08-09T12:09:33.309Z,99.90
2023-08-09T12:12:08.631Z,99.90
2023-08-09T12:14:37.630Z,99.90
2023-08-09T12:17:06.185Z,99.90
2023-08-09T12:19:35.194Z,99.90
2023-08-09T12:22:03.039Z,99.90
2023-08-09T12:24:33.010Z,99.90
2023-08-09T12:27:00.447Z,99.90
2023-08-09T12:29:27.517Z,99.90
2023-08-09T12:31:54.638Z,99.90
2023-08-09T12:34:21.618Z,99.90
2023-08-09T12:36:49.936Z,99.90
2023-08-09T12:39:16.995Z,99.90
2023-08-09T12:41:44.107Z,99.90
2023-08-09T12:44:11.134Z,99.90
2023-08-09T12:46:38.592Z,99.90
2023-08-09T12:49:06.167Z,99.90
2023-08-09T12:51:33.400Z,99.90
2023-08-09T12:54:01.846Z,99.90
2023-08-09T12:56:32.742Z,99.80
2023-08-09T12:59:01.047Z,99.90
2023-08-09T13:01:28.554Z,99.90
2023-08-09T13:03:55.899Z,99.90
2023-08-09T13:06:22.820Z,99.60
2023-08-09T13:08:50.593Z,99.30
2023-08-09T13:11:19.183Z,98.70
2023-08-09T13:13:46.419Z,99.10
2023-08-09T13:16:13.424Z,98.70
2023-08-09T13:18:40.940Z,99.00
2023-08-09T13:21:14.236Z,99.40
2023-08-09T13:23:42.547Z,98.90
2023-08-09T13:26:09.723Z,98.70
2023-08-09T13:28:38.060Z,99.30
2023-08-09T13:31:05.042Z,98.90
2023-08-09T13:33:32.002Z,99.10
2023-08-09T13:35:58.909Z,98.80
2023-08-09T13:38:27.710Z,99.00
2023-08-09T13:40:56.218Z,99.30
2023-08-09T13:43:23.225Z,99.70
2023-08-09T13:45:51.511Z,99.80
2023-08-09T13:48:18.695Z,99.90
2023-08-09T13:50:47.603Z,99.30
2023-08-09T13:53:14.833Z,98.90
2023-08-09T13:55:42.597Z,98.30
2023-08-09T13:58:09.891Z,98.30
2023-08-09T14:00:37.484Z,98.70
2023-08-09T14:03:06.319Z,98.40
2023-08-09T14:05:33.543Z,98.80
2023-08-09T14:08:00.787Z,98.70
2023-08-09T14:10:28.131Z,98.70
2023-08-09T14:12:55.836Z,98.50
2023-08-09T14:15:22.798Z,98.50
2023-08-09T14:17:49.781Z,97.90
2023-08-09T14:20:18.629Z,97.50
2023-08-09T14:22:45.707Z,97.10
2023-08-09T14:25:14.570Z,97.70
2023-08-09T14:27:41.799Z,97.30
2023-08-09T14:30:10.606Z,97.10
2023-08-09T14:32:37.636Z,97.20
2023-08-09T14:35:09.752Z,97.60
2023-08-09T14:37:38.242Z,97.80
2023-08-09T14:40:10.738Z,97.80
2023-08-09T14:42:39.541Z,98.30
2023-08-09T14:45:08.766Z,98.30
2023-08-09T14:47:36.090Z,98.60
2023-08-09T14:50:03.612Z,98.70
2023-08-09T14:52:31.193Z,98.90
2023-08-09T14:54:59.485Z,99.00
2023-08-09T14:57:26.447Z,98.90
2023-08-09T14:59:53.384Z,99.30
2023-08-09T15:02:20.422Z,99.90
2023-08-09T15:04:47.774Z,99.80
2023-08-09T15:07:16.719Z,99.60
2023-08-09T15:09:44.444Z,99.80
2023-08-09T15:12:12.697Z,99.90
2023-08-09T15:14:42.560Z,99.90
2023-08-09T15:17:22.573Z,99.90
2023-08-09T15:19:52.447Z,99.90
2023-08-09T15:22:19.488Z,99.90
2023-08-09T15:24:46.530Z,99.90
2023-08-09T15:27:15.031Z,99.90
2023-08-09T15:29:42.236Z,99.90
2023-08-09T15:32:09.353Z,99.90
2023-08-09T15:34:37.125Z,99.90
2023-08-09T15:37:05.559Z,99.90
2023-08-09T15:39:34.098Z,99.90
2023-08-09T15:42:15.753Z,99.90
2023-08-09T15:44:47.287Z,99.90
2023-08-09T15:47:18.515Z,99.90
2023-08-09T15:49:45.921Z,99.90
2023-08-09T15:52:12.944Z,99.90
2023-08-09T15:54:40.115Z,99.90
2023-08-09T15:57:06.982Z,99.80
2023-08-09T15:59:33.886Z,99.70
2023-08-09T16:02:02.130Z,99.60
2023-08-09T16:04:29.309Z,99.30
2023-08-09T16:06:56.266Z,98.90
2023-08-09T16:09:25.178Z,98.50
2023-08-09T16:11:52.133Z,98.60
2023-08-09T16:14:19.262Z,98.80
2023-08-09T16:16:46.352Z,98.80
2023-08-09T16:19:14.797Z,98.60
2023-08-09T16:21:43.502Z,98.70
2023-08-09T16:24:10.971Z,98.40
2023-08-09T16:26:38.263Z,98.50
2023-08-09T16:29:06.078Z,98.20
2023-08-09T16:31:33.384Z,98.50
2023-08-09T16:34:00.670Z,97.60
2023-08-09T16:36:29.009Z,97.50
2023-08-09T16:38:55.974Z,97.40
2023-08-09T16:41:24.034Z,97.70
2023-08-09T16:43:54.763Z,97.80
2023-08-09T16:46:21.951Z,98.00
2023-08-09T16:48:50.505Z,98.20
2023-08-09T16:51:17.686Z,98.60
2023-08-09T16:53:45.921Z,98.70
2023-08-09T16:56:12.838Z,99.00
2023-08-09T16:58:39.723Z,99.10
2023-08-09T17:01:06.658Z,98.40
2023-08-09T17:03:33.707Z,97.80
2023-08-09T17:06:00.663Z,97.60
2023-08-09T17:08:28.328Z,97.20
2023-08-09T17:10:56.601Z,97.40
2023-08-09T17:13:23.505Z,97.30
2023-08-09T17:15:50.441Z,97.70
2023-08-09T17:18:17.493Z,97.80
2023-08-09T17:20:44.600Z,97.60
2023-08-09T17:23:11.531Z,97.80
2023-08-09T17:25:39.183Z,97.80
2023-08-09T17:28:07.786Z,98.00
2023-08-09T17:30:34.739Z,98.00
2023-08-09T17:33:02.488Z,98.00
2023-08-09T17:35:29.425Z,98.30
2023-08-09T17:37:56.705Z,98.40
2023-08-09T17:40:23.663Z,98.60
2023-08-09T17:42:51.430Z,98.80
2023-08-09T17:45:20.264Z,98.90
2023-08-09T17:47:47.439Z,99.10
2023-08-09T17:50:14.493Z,99.40
2023-08-09T17:52:41.843Z,99.30
2023-08-09T17:55:09.555Z,99.40
2023-08-09T17:57:54.746Z,99.60
2023-08-09T18:00:24.456Z,99.90
2023-08-09T18:02:53.206Z,99.90
2023-08-09T18:05:20.679Z,99.90
2023-08-09T18:07:48.098Z,99.90
2023-08-09T18:10:16.861Z,99.90
2023-08-09T18:12:45.046Z,99.90
2023-08-09T18:15:12.096Z,99.90
2023-08-09T18:17:40.527Z,99.90
2023-08-09T18:20:15.626Z,99.90
2023-08-09T18:22:45.499Z,99.90
2023-08-09T18:25:12.541Z,99.90
2023-08-09T18:27:39.455Z,99.90
2023-08-09T18:30:07.548Z,99.90
2023-08-09T18:32:34.777Z,99.90
2023-08-09T18:35:16.476Z,99.90
2023-08-09T18:37:44.737Z,99.90
2023-08-09T18:40:13.485Z,99.90
2023-08-09T18:42:41.210Z,99.90
2023-08-09T18:45:09.158Z,99.90
2023-08-09T18:47:36.125Z,99.90
2023-08-09T18:50:05.218Z,99.90
2023-08-09T18:52:32.338Z,99.90
2023-08-09T18:54:59.406Z,99.90
2023-08-09T18:57:27.028Z,99.90
2023-08-09T18:59:54.036Z,99.90
2023-08-09T19:02:21.162Z,99.90
2023-08-09T19:04:48.722Z,99.90
2023-08-09T19:07:17.480Z,99.90
2023-08-09T19:09:45.216Z,99.90
2023-08-09T19:12:12.673Z,99.90
2023-08-09T19:14:39.865Z,99.90
2023-08-09T19:17:07.430Z,99.90
2023-08-09T19:19:34.872Z,99.90
2023-08-09T19:22:01.944Z,99.90
2023-08-09T19:24:30.261Z,99.90
2023-08-09T19:26:59.734Z,99.90
2023-08-09T19:29:26.708Z,99.90
2023-08-09T19:31:54.554Z,99.90
2023-08-09T19:34:21.505Z,99.90
2023-08-09T19:36:48.402Z,99.90
2023-08-09T19:39:15.349Z,99.90
2023-08-09T19:41:43.685Z,99.90
2023-08-09T19:44:10.855Z,99.90
2023-08-09T19:46:37.818Z,99.90
2023-08-09T19:49:06.268Z,99.90
2023-08-09T19:51:33.813Z,99.90
2023-08-09T19:54:00.748Z,99.90
2023-08-09T19:56:27.791Z,99.90
2023-08-09T19:58:56.071Z,99.90
2023-08-09T20:01:23.263Z,99.90
2023-08-09T20:03:50.156Z,99.90
2023-08-09T20:06:17.152Z,99.90
2023-08-09T20:08:44.434Z,99.90
2023-08-09T20:11:13.537Z,99.90
2023-08-09T20:13:40.588Z,99.90
2023-08-09T20:16:08.860Z,99.90
2023-08-09T20:18:36.136Z,99.90
2023-08-09T20:21:05.558Z,99.90
2023-08-09T20:23:32.495Z,99.90
2023-08-09T20:25:59.696Z,99.90
2023-08-09T20:28:26.649Z,99.90
2023-08-09T20:30:53.647Z,99.90
2023-08-09T20:33:22.811Z,99.90
2023-08-09T20:35:50.137Z,99.90
2023-08-09T20:38:17.192Z,99.90
2023-08-09T20:40:49.045Z,99.90
2023-08-09T20:43:15.996Z,99.90
2023-08-09T20:45:42.888Z,99.90
2023-08-09T20:48:09.977Z,99.90
2023-08-09T20:50:38.723Z,99.90
2023-08-09T20:53:05.725Z,99.90
2023-08-09T20:55:32.889Z,99.90
2023-08-09T20:57:59.809Z,99.90
2023-08-09T21:00:27.069Z,99.90
2023-08-09T21:02:53.990Z,99.90
2023-08-09T21:05:21.214Z,99.90
2023-08-09T21:07:49.481Z,99.90
2023-08-09T21:10:16.400Z,99.90
2023-08-09T21:12:44.450Z,99.90
2023-08-09T21:15:11.738Z,99.90
2023-08-09T21:17:39.631Z,99.90
2023-08-09T21:20:08.127Z,99.90
2023-08-09T21:22:35.008Z,99.90
2023-08-09T21:27:33.133Z,99.90
2023-08-09T21:30:00.712Z,99.90
2023-08-09T21:32:27.813Z,99.90
2023-08-09T21:34:54.765Z,99.90
2023-08-09T21:37:21.783Z,99.90
2023-08-09T21:39:48.722Z,99.90
2023-08-09T21:42:18.066Z,99.90
2023-08-09T21:44:45.069Z,99.90
2023-08-09T21:47:11.999Z,99.90
2023-08-09T21:49:39.472Z,99.90
2023-08-09T21:52:06.647Z,99.90
2023-08-09T21:54:33.625Z,99.90
2023-08-09T21:57:00.552Z,99.90
2023-08-09T21:59:28.839Z,99.90
2023-08-09T22:01:55.967Z,99.90
2023-08-09T22:04:23.030Z,99.90
2023-08-09T22:06:49.953Z,99.90
2023-08-09T22:09:17.233Z,99.90
2023-08-09T22:11:47.984Z,99.90
2023-08-09T22:14:15.216Z,99.90
2023-08-09T22:16:43.788Z,99.90
2023-08-09T22:19:11.299Z,99.90
2023-08-09T22:21:47.221Z,99.90
2023-08-09T22:24:19.558Z,99.90
2023-08-09T22:26:46.539Z,99.90
2023-08-09T22:29:14.785Z,99.90
2023-08-09T22:31:43.121Z,99.90
2023-08-09T22:34:10.104Z,99.90
2023-08-09T22:36:37.105Z,99.90
2023-08-09T22:39:04.016Z,99.90
2023-08-09T22:41:30.929Z,99.90
2023-08-09T22:43:57.837Z,99.90
2023-08-09T22:46:24.745Z,99.90
2023-08-09T22:48:53.065Z,99.90
2023-08-09T22:51:20.031Z,99.90
2023-08-09T22:53:47.072Z,99.90
2023-08-09T22:56:15.339Z,99.90
2023-08-09T22:58:42.432Z,99.90
2023-08-09T23:01:09.453Z,99.90
2023-08-09T23:03:36.511Z,99.90
2023-08-09T23:06:04.981Z,99.90
2023-08-09T23:08:31.903Z,99.90
2023-08-09T23:10:58.863Z,99.90
2023-08-09T23:13:27.483Z,99.90
2023-08-09T23:15:56.021Z,99.90
2023-08-09T23:18:23.012Z,99.90
2023-08-09T23:20:51.680Z,99.90
2023-08-09T23:23:20.636Z,99.90
2023-08-09T23:25:47.573Z,99.90
2023-08-09T23:28:14.509Z,99.90
2023-08-09T23:30:41.590Z,99.90
2023-08-09T23:33:08.749Z,99.90
2023-08-09T23:35:35.776Z,99.90
2023-08-09T23:38:02.743Z,99.90
2023-08-09T23:40:31.022Z,99.90
2023-08-09T23:42:57.969Z,99.90
2023-08-09T23:45:24.926Z,99.90
2023-08-09T23:47:53.194Z,99.90
2023-08-09T23:50:20.313Z,99.90
2023-08-09T23:52:47.265Z,99.90
2023-08-09T23:55:14.250Z,99.90
2023-08-09T23:57:42.742Z,99.90
